EST,Max TemperatureF,Mean TemperatureF,Min TemperatureF,Max Dew PointF,MeanDew PointF,Min DewpointF,Max Humidity, Mean Humidity, Min Humidity, Max Sea Level PressureIn, Mean Sea Level PressureIn, Min Sea Level PressureIn, Max VisibilityMiles, Mean VisibilityMiles, Min VisibilityMiles, Max Wind SpeedMPH, Mean Wind SpeedMPH, Max Gust SpeedMPH,PrecipitationIn, CloudCover, Events, WindDirDegrees
2013-11-1,69,58,46,61,54,43,96,76,50,29.74,29.61,29.52,,,,21,8,33,0.39,,,210
2013-11-2,66,52,39,47,42,36,97,75,42,29.81,29.70,29.65,,,,9,1,,0.00,,,300
2013-11-3,48,41,33,42,28,17,93,60,37,30.46,30.15,29.82,,,,13,5,22,0.00,,,354
2013-11-4,44,34,24,23,19,14,81,58,31,30.68,30.63,30.51,,,,7,1,,0.00,,,31
2013-11-5,53,42,30,40,31,20,77,65,50,30.68,30.60,30.50,,,,6,1,,0.00,,,228
2013-11-6,57,51,45,48,43,39,83,71,57,30.50,30.30,30.06,,,,9,2,,0.00,,,205
2013-11-7,57,46,33,55,44,29,93,80,60,30.03,29.90,29.78,,,,10,6,20,0.15,,,237
2013-11-8,46,40,33,32,25,20,85,58,37,30.24,30.09,29.96,,,,10,3,23,0.00,,,315
2013-11-9,48,38,28,31,26,24,92,62,39,30.31,30.19,29.99,,,,9,2,20,0.00,,,200
2013-11-10,55,44,34,36,30,24,82,56,39,30.08,29.95,29.85,,,,15,4,26,0.00,,,256
2013-11-11,51,42,32,31,27,23,73,50,41,30.23,30.10,29.97,,,,10,5,20,0.00,,,220
2013-11-12,48,38,26,32,20,14,82,58,46,30.33,30.18,29.96,,,,15,6,22,0.02,,,350
2013-11-13,37,30,24,19,14,10,75,56,34,30.42,30.36,30.29,,,,12,5,21,0.00,,,333
2013-11-14,50,39,28,24,19,14,70,53,26,30.27,30.21,30.15,,,,10,5,16,0.00,,,202
2013-11-15,55,41,27,28,22,14,79,58,20,30.26,30.22,30.17,,,,9,2,,0.00,,,217
2013-11-16,60,48,37,43,37,28,93,73,44,30.35,30.29,30.26,,,,5,1,,0.01,,,221
2013-11-17,60,53,46,56,52,44,97,89,83,30.25,30.08,29.76,,,,10,3,20,0.00,,,186
2013-11-18,62,55,46,59,37,25,93,53,27,29.81,29.69,29.59,,,,17,8,26,0.32,,,230
2013-11-19,46,38,28,27,22,19,67,50,41,30.40,30.12,29.82,,,,13,7,24,0.00,,,348
2013-11-20,42,33,24,20,16,9,75,54,26,30.65,30.56,30.41,,,,9,5,,0.00,,,25
2013-11-21,48,34,21,39,27,16,85,69,50,30.65,30.55,30.40,,,,6,1,,0.00,,,10
2013-11-22,54,50,45,46,44,39,93,82,71,30.37,30.12,29.95,,,,7,3,16,0.02,,,211
2013-11-23,48,38,25,40,21,7,88,54,32,30.11,30.02,29.93,,,,12,7,28,0.01,,,318
2013-11-24,26,22,19,5,3,0,52,44,32,30.42,30.25,30.08,,,,14,9,28,0.00,,,327
2013-11-25,32,24,15,13,10,6,71,52,43,30.50,30.42,30.34,,,,10,4,17,0.00,,,212
2013-11-26,36,33,30,35,23,11,97,72,43,30.34,30.21,29.78,,,,7,3,,0.66,,,222
2013-11-27,43,38,30,41,32,14,100,84,50,29.79,29.54,29.42,,,,14,6,29,1.06,,,344
2013-11-28,32,28,24,17,12,7,69,52,35,30.48,30.25,29.84,,,,13,6,25,0.00,,,321
2013-11-29,36,30,21,21,18,14,85,66,50,30.76,30.62,30.48,,,,7,1,,0.00,,,346
2013-11-30,32,24,16,25,17,11,88,70,43,30.79,30.65,30.41,,,,6,2,,0.00,,,141